Time;durP1;ratioP1;P1;durP2;ratioP2;P2;SDS_P1;SDS_P2;PMS_P1;PMS_P2;Temp;Humidity;BMP_temperature;BMP_pressure;BME280_temperature;BME280_humidity;BME280_pressure;Samples;Min_cycle;Max_cycle;Signal;HPM_P1;HPM_P2
2022/01/29 00:00:17;;;;;;;20.63;9.27;;;8.90;95.10;;;;;;4967127;28;20584;-87
2022/01/29 00:02:43;;;;;;;25.13;11.53;;;8.80;95.10;;;;;;4927673;28;20524;-88
2022/01/29 00:05:10;;;;;;;22.60;10.02;;;8.80;95.00;;;;;;4962534;28;20038;-87
2022/01/29 00:07:38;;;;;;;15.73;8.00;;;8.90;95.00;;;;;;5002740;28;20030;-87
2022/01/29 00:10:05;;;;;;;19.77;8.35;;;8.90;95.30;;;;;;4957646;28;20030;-87
2022/01/29 00:12:31;;;;;;;19.38;9.10;;;8.90;95.20;;;;;;4955902;28;20331;-87
2022/01/29 00:14:57;;;;;;;19.27;8.52;;;8.90;95.20;;;;;;4962139;28;20531;-87
2022/01/29 00:17:23;;;;;;;14.87;7.40;;;8.90;95.20;;;;;;4934164;28;20019;-87
2022/01/29 00:19:48;;;;;;;17.50;7.68;;;8.90;95.30;;;;;;4959854;28;20026;-88
2022/01/29 00:22:14;;;;;;;23.20;9.63;;;8.90;95.20;;;;;;4961592;28;20027;-88
2022/01/29 00:24:39;;;;;;;19.50;8.88;;;8.90;95.10;;;;;;4971641;28;20427;-87
2022/01/29 00:27:09;;;;;;;21.87;9.03;;;8.90;95.20;;;;;;4968421;28;20026;-88
2022/01/29 00:29:38;;;;;;;20.63;9.32;;;8.90;95.20;;;;;;4963351;28;20038;-87
2022/01/29 00:32:09;;;;;;;18.45;8.15;;;8.90;95.10;;;;;;4964887;28;20248;-87
2022/01/29 00:34:35;;;;;;;20.27;8.90;;;8.90;95.20;;;;;;4968347;28;20035;-87
2022/01/29 00:37:01;;;;;;;18.50;8.30;;;8.90;95.40;;;;;;4958389;28;20356;-87
2022/01/29 00:39:27;;;;;;;16.98;7.50;;;8.90;95.20;;;;;;4949922;28;20057;-87
2022/01/29 00:41:53;;;;;;;22.00;9.68;;;8.90;95.30;;;;;;4961553;28;20026;-87
2022/01/29 00:44:18;;;;;;;22.63;9.93;;;8.90;95.00;;;;;;4970617;28;20022;-87
2022/01/29 00:46:44;;;;;;;27.63;11.50;;;8.80;95.00;;;;;;4960692;28;20027;-87
2022/01/29 00:49:12;;;;;;;19.90;9.70;;;8.80;94.60;;;;;;4949775;28;20094;-87
2022/01/29 00:51:38;;;;;;;20.25;8.82;;;8.80;94.70;;;;;;4959204;28;20054;-87
2022/01/29 00:54:04;;;;;;;17.38;8.00;;;8.80;94.80;;;;;;4958455;28;20169;-88
2022/01/29 00:56:30;;;;;;;18.77;8.43;;;8.70;94.80;;;;;;4957541;28;20027;-87
2022/01/29 00:58:56;;;;;;;20.13;9.23;;;8.70;94.90;;;;;;4964253;28;20362;-87
2022/01/29 01:01:21;;;;;;;20.97;8.33;;;8.70;94.90;;;;;;4960695;28;20515;-87
2022/01/29 01:03:47;;;;;;;20.40;9.00;;;8.70;94.90;;;;;;4951909;28;20071;-88
2022/01/29 01:06:13;;;;;;;18.23;8.13;;;8.60;95.00;;;;;;4964101;28;20287;-88
2022/01/29 01:08:39;;;;;;;19.15;9.20;;;8.60;94.90;;;;;;4966569;28;20035;-87
2022/01/29 01:11:05;;;;;;;19.88;8.48;;;8.60;95.00;;;;;;4957332;28;20161;-87
2022/01/29 01:13:31;;;;;;;18.40;7.67;;;8.60;95.10;;;;;;4956440;28;20029;-87
2022/01/29 01:15:57;;;;;;;22.50;9.25;;;8.50;95.20;;;;;;4972043;28;20049;-87
2022/01/29 01:18:23;;;;;;;16.23;7.05;;;8.60;95.20;;;;;;4958006;28;20485;-88
2022/01/29 01:20:49;;;;;;;19.60;7.80;;;8.50;95.30;;;;;;4988647;28;20062;-87
2022/01/29 01:23:14;;;;;;;20.10;8.40;;;8.50;95.30;;;;;;4958404;28;20031;-87
2022/01/29 01:25:40;;;;;;;14.93;6.47;;;8.50;95.30;;;;;;4972066;28;20520;-87
2022/01/29 01:28:05;;;;;;;17.45;8.15;;;8.50;95.30;;;;;;4981665;28;20050;-87
2022/01/29 01:30:32;;;;;;;20.77;8.30;;;8.50;95.30;;;;;;4962459;28;20026;-87
2022/01/29 01:33:01;;;;;;;20.13;8.52;;;8.50;95.30;;;;;;4967622;28;20131;-87
2022/01/29 01:35:52;;;;;;;19.58;7.82;;;8.50;95.30;;;;;;4944078;28;20027;-87
2022/01/29 01:38:27;;;;;;;22.83;9.20;;;8.50;95.40;;;;;;4963936;28;20117;-88
2022/01/29 01:40:59;;;;;;;19.88;8.15;;;8.40;95.40;;;;;;4993217;28;20031;-87
2022/01/29 01:43:24;;;;;;;20.15;8.13;;;8.40;95.40;;;;;;4972654;28;20029;-88
2022/01/29 01:45:50;;;;;;;16.05;6.72;;;8.40;95.40;;;;;;5005833;28;20446;-87
2022/01/29 01:48:16;;;;;;;19.30;7.73;;;8.40;95.60;;;;;;4950939;28;20583;-87
2022/01/29 01:50:42;;;;;;;18.48;8.32;;;8.40;95.60;;;;;;4935708;28;20094;-87
2022/01/29 01:53:08;;;;;;;20.00;8.70;;;8.40;95.70;;;;;;4960324;28;20026;-87
2022/01/29 01:55:34;;;;;;;19.17;7.47;;;8.40;95.80;;;;;;4948328;28;20123;-88
2022/01/29 01:58:00;;;;;;;18.65;8.10;;;8.40;95.80;;;;;;4949849;28;20262;-87
2022/01/29 02:00:27;;;;;;;28.25;11.45;;;8.50;95.90;;;;;;4991897;28;20027;-87
2022/01/29 02:02:53;;;;;;;18.23;7.33;;;8.50;95.90;;;;;;4964638;28;20023;-87
2022/01/29 02:05:19;;;;;;;22.00;8.63;;;8.50;96.00;;;;;;4958259;28;20049;-87
2022/01/29 02:07:46;;;;;;;19.23;8.00;;;8.50;96.00;;;;;;4970512;28;20027;-87
2022/01/29 02:10:13;;;;;;;20.58;8.57;;;8.50;96.00;;;;;;4995870;28;20272;-88
2022/01/29 02:12:53;;;;;;;18.00;8.23;;;8.60;96.10;;;;;;4963918;28;20023;-89
2022/01/29 02:15:20;;;;;;;24.50;9.97;;;8.60;95.90;;;;;;4940926;28;20026;-88
2022/01/29 02:17:48;;;;;;;20.83;8.25;;;8.60;95.90;;;;;;4961363;28;20515;-88
2022/01/29 02:20:16;;;;;;;19.33;8.07;;;8.60;96.00;;;;;;4993788;28;20216;-88
2022/01/29 02:22:44;;;;;;;18.98;8.45;;;8.60;96.10;;;;;;4934011;28;20054;-88
2022/01/29 02:25:30;;;;;;;19.02;8.43;;;8.60;96.00;;;;;;4959627;28;20121;-87
2022/01/29 02:27:59;;;;;;;14.90;6.63;;;8.70;95.80;;;;;;4986905;28;20031;-87
2022/01/29 02:30:25;;;;;;;16.02;7.00;;;8.70;96.00;;;;;;5002821;28;20027;-87
2022/01/29 02:32:50;;;;;;;18.67;8.38;;;8.70;96.00;;;;;;4938646;28;20382;-87
2022/01/29 02:35:16;;;;;;;16.83;6.70;;;8.70;96.00;;;;;;4962920;28;20022;-87
2022/01/29 02:37:41;;;;;;;21.20;8.27;;;8.70;96.00;;;;;;4950873;28;20031;-87
2022/01/29 02:40:07;;;;;;;20.53;8.83;;;8.70;96.00;;;;;;4963973;28;20290;-88
2022/01/29 02:42:33;;;;;;;17.40;7.88;;;8.60;95.90;;;;;;4978934;28;20035;-87
2022/01/29 02:44:59;;;;;;;16.90;7.47;;;8.70;96.00;;;;;;4953251;28;20501;-87
2022/01/29 02:47:31;;;;;;;13.07;6.28;;;8.70;96.10;;;;;;4939811;28;20027;-88
2022/01/29 02:49:57;;;;;;;15.50;6.93;;;8.70;96.10;;;;;;4942973;28;20125;-87
2022/01/29 02:52:23;;;;;;;13.23;6.10;;;8.70;96.10;;;;;;4937811;28;20026;-87
2022/01/29 02:54:49;;;;;;;20.23;8.38;;;8.70;96.10;;;;;;4959917;28;20097;-88
2022/01/29 02:57:15;;;;;;;15.00;6.70;;;8.70;96.10;;;;;;4953136;28;20027;-88
2022/01/29 02:59:41;;;;;;;13.63;6.65;;;8.70;96.10;;;;;;4972437;28;20081;-87
2022/01/29 03:02:06;;;;;;;16.60;7.22;;;8.70;96.10;;;;;;4953834;28;20249;-87
2022/01/29 03:04:32;;;;;;;16.30;7.10;;;8.70;96.10;;;;;;4995884;28;20133;-87
2022/01/29 03:06:58;;;;;;;16.90;7.55;;;8.70;96.20;;;;;;4946633;28;20725;-88
2022/01/29 03:09:24;;;;;;;13.60;6.07;;;8.80;96.20;;;;;;4963176;28;20034;-87
2022/01/29 03:11:49;;;;;;;14.43;6.30;;;8.70;96.30;;;;;;4970499;28;20357;-88
2022/01/29 03:14:15;;;;;;;12.20;5.22;;;8.70;96.30;;;;;;4960526;28;20338;-88
2022/01/29 03:16:41;;;;;;;14.20;6.60;;;8.70;96.30;;;;;;4968072;28;20033;-87
2022/01/29 03:19:06;;;;;;;10.93;5.00;;;8.80;96.40;;;;;;4970512;28;20117;-88
2022/01/29 03:21:32;;;;;;;12.15;5.30;;;8.80;96.50;;;;;;4962267;28;20539;-88
2022/01/29 03:23:57;;;;;;;11.70;5.73;;;8.80;96.80;;;;;;4944743;28;20046;-88
2022/01/29 03:26:23;;;;;;;10.57;5.28;;;8.80;96.50;;;;;;4993652;28;20055;-88
2022/01/29 03:28:49;;;;;;;11.93;5.10;;;8.80;96.50;;;;;;4963780;28;20384;-87
2022/01/29 03:31:14;;;;;;;10.88;4.95;;;8.80;96.50;;;;;;4974440;28;20511;-87
2022/01/29 03:33:40;;;;;;;14.93;7.27;;;8.90;96.60;;;;;;4976031;28;20023;-88
2022/01/29 03:36:06;;;;;;;10.53;4.87;;;8.90;96.60;;;;;;4961636;28;20685;-87
2022/01/29 03:38:31;;;;;;;11.30;5.38;;;8.90;96.60;;;;;;4958792;28;20055;-88
2022/01/29 03:40:59;;;;;;;10.25;4.68;;;8.90;96.60;;;;;;4962140;28;20035;-89
2022/01/29 03:43:34;;;;;;;10.40;4.37;;;8.90;96.60;;;;;;4960672;28;20027;-87
2022/01/29 03:46:00;;;;;;;8.73;4.45;;;8.90;96.60;;;;;;4957293;28;20112;-88
2022/01/29 03:48:26;;;;;;;9.05;4.25;;;8.90;96.70;;;;;;4944074;28;20026;-88
2022/01/29 03:50:51;;;;;;;12.63;5.60;;;9.00;96.70;;;;;;4958325;28;20042;-88
2022/01/29 03:53:17;;;;;;;12.82;6.13;;;9.00;96.70;;;;;;4965112;28;20478;-88
2022/01/29 03:55:43;;;;;;;10.03;4.63;;;9.00;96.80;;;;;;4975222;28;20223;-88
2022/01/29 03:58:08;;;;;;;8.85;4.28;;;9.00;96.80;;;;;;4974826;28;20070;-88
2022/01/29 04:00:34;;;;;;;10.67;5.07;;;9.00;96.80;;;;;;4945871;28;20077;-88
2022/01/29 04:03:00;;;;;;;11.98;5.47;;;9.10;96.80;;;;;;4970131;28;20382;-88
2022/01/29 04:05:26;;;;;;;12.60;5.30;;;9.10;96.80;;;;;;4963559;28;20062;-88
2022/01/29 04:07:52;;;;;;;10.73;5.35;;;9.10;96.80;;;;;;4959765;28;20420;-87
2022/01/29 04:10:19;;;;;;;7.70;4.10;;;9.10;96.80;;;;;;4945103;28;20027;-87
2022/01/29 04:12:49;;;;;;;8.77;4.55;;;9.10;96.80;;;;;;4945578;28;20035;-88
2022/01/29 04:15:14;;;;;;;10.15;5.00;;;9.10;96.80;;;;;;4962581;28;20027;-88
2022/01/29 04:17:40;;;;;;;8.88;4.75;;;9.20;96.80;;;;;;4957454;28;20038;-88
2022/01/29 04:20:06;;;;;;;8.73;4.40;;;9.20;96.80;;;;;;4956653;28;20065;-88
2022/01/29 04:22:32;;;;;;;9.85;5.38;;;9.20;96.80;;;;;;4964350;28;20031;-88
2022/01/29 04:24:57;;;;;;;9.83;5.10;;;9.20;96.80;;;;;;4982770;28;20267;-87
2022/01/29 04:27:32;;;;;;;9.98;4.43;;;9.20;96.80;;;;;;4961521;28;20027;-87
2022/01/29 04:30:01;;;;;;;8.25;4.18;;;9.20;96.80;;;;;;4961391;28;20114;-88
2022/01/29 04:35:11;;;;;;;10.27;5.70;;;9.30;96.80;;;;;;4983811;28;20156;-87
2022/01/29 04:37:37;;;;;;;8.77;4.45;;;9.30;96.80;;;;;;4960879;28;20110;-87
2022/01/29 04:40:03;;;;;;;11.37;5.60;;;9.30;96.80;;;;;;4977292;28;20014;-88
2022/01/29 04:42:29;;;;;;;10.27;4.53;;;9.30;96.80;;;;;;4963767;28;20093;-88
2022/01/29 04:44:54;;;;;;;8.57;4.87;;;9.30;96.80;;;;;;4957535;28;20034;-87
2022/01/29 04:47:20;;;;;;;9.68;4.78;;;9.40;96.80;;;;;;5001887;28;20049;-88
2022/01/29 04:49:45;;;;;;;12.00;5.53;;;9.40;96.80;;;;;;4958696;28;20027;-89
2022/01/29 04:52:11;;;;;;;10.45;5.72;;;9.40;96.80;;;;;;4968096;28;21263;-88
2022/01/29 04:54:37;;;;;;;9.03;4.90;;;9.40;96.80;;;;;;4950611;28;20042;-87
2022/01/29 04:57:03;;;;;;;10.43;4.80;;;9.40;96.80;;;;;;4948159;28;20067;-87
2022/01/29 04:59:28;;;;;;;11.10;5.82;;;9.40;96.80;;;;;;4964283;28;20042;-87
2022/01/29 05:01:54;;;;;;;9.70;5.40;;;9.40;96.70;;;;;;4965966;28;20041;-88
2022/01/29 05:04:19;;;;;;;9.52;4.38;;;9.40;96.80;;;;;;4968320;28;20026;-88
2022/01/29 05:06:45;;;;;;;8.97;4.53;;;9.40;96.70;;;;;;4960831;28;20023;-88
2022/01/29 05:09:11;;;;;;;9.57;4.78;;;9.40;96.70;;;;;;4966277;28;20152;-88
2022/01/29 05:11:37;;;;;;;9.93;5.17;;;9.40;96.70;;;;;;4950262;28;20019;-88
2022/01/29 05:14:06;;;;;;;10.75;5.47;;;9.40;96.70;;;;;;4975644;28;20406;-88
2022/01/29 05:17:07;;;;;;;11.13;5.72;;;9.50;96.80;;;;;;4964308;28;20038;-87
2022/01/29 05:27:35;;;;;;;9.13;4.78;;;9.50;96.80;;;;;;4963429;28;20542;-88
2022/01/29 05:30:01;;;;;;;9.40;5.00;;;9.50;96.80;;;;;;4973775;28;20030;-87
2022/01/29 05:32:27;;;;;;;10.45;5.22;;;9.50;96.80;;;;;;4942161;28;20093;-88
2022/01/29 05:34:53;;;;;;;9.27;4.90;;;9.60;96.80;;;;;;4939017;28;20027;-87
2022/01/29 05:37:18;;;;;;;10.23;4.50;;;9.60;96.90;;;;;;4962777;28;20033;-88
2022/01/29 05:39:44;;;;;;;7.87;4.23;;;9.60;96.80;;;;;;4947742;28;20026;-88
2022/01/29 05:42:10;;;;;;;9.35;5.50;;;9.60;96.90;;;;;;4948505;28;21348;-87
2022/01/29 05:44:35;;;;;;;7.83;4.40;;;9.60;96.90;;;;;;4961994;28;20027;-88
2022/01/29 05:47:01;;;;;;;9.50;5.13;;;9.70;96.90;;;;;;4991584;28;20019;-88
2022/01/29 05:49:26;;;;;;;9.37;4.67;;;9.70;96.90;;;;;;4988008;28;20089;-88
2022/01/29 05:51:52;;;;;;;6.87;4.03;;;9.70;96.90;;;;;;4960125;28;20027;-88
2022/01/29 05:54:18;;;;;;;9.20;4.30;;;9.70;96.90;;;;;;4964302;28;20536;-88
2022/01/29 05:56:43;;;;;;;10.80;5.13;;;9.80;97.00;;;;;;4947989;28;20408;-87
2022/01/29 05:59:09;;;;;;;9.60;5.35;;;9.80;96.90;;;;;;4955934;28;20080;-88
2022/01/29 06:01:35;;;;;;;8.87;4.27;;;9.80;96.90;;;;;;4961664;28;20169;-88
2022/01/29 06:04:00;;;;;;;8.63;4.65;;;9.80;97.20;;;;;;4951170;28;20543;-88
2022/01/29 06:06:26;;;;;;;8.13;4.47;;;9.80;96.90;;;;;;4949008;28;20030;-87
2022/01/29 06:08:52;;;;;;;7.83;4.47;;;9.80;96.90;;;;;;4958253;28;20039;-87
2022/01/29 06:11:17;;;;;;;7.18;3.97;;;9.80;96.90;;;;;;4961757;28;20073;-88
2022/01/29 06:13:43;;;;;;;7.43;4.10;;;9.90;97.00;;;;;;4945337;28;20565;-88
2022/01/29 06:16:11;;;;;;;6.73;4.07;;;9.90;96.90;;;;;;4967153;28;20125;-88
2022/01/29 06:18:37;;;;;;;8.70;4.45;;;9.90;97.00;;;;;;4964437;28;20252;-87
2022/01/29 06:21:08;;;;;;;9.05;4.53;;;10.00;96.90;;;;;;4957724;28;20027;-87
2022/01/29 06:23:36;;;;;;;7.90;4.82;;;10.00;97.00;;;;;;4944706;28;20413;-87
2022/01/29 06:26:07;;;;;;;8.27;4.68;;;10.00;97.00;;;;;;4980892;28;20154;-88
2022/01/29 06:28:33;;;;;;;10.23;5.37;;;10.00;97.00;;;;;;4976631;28;20488;-87
2022/01/29 06:30:59;;;;;;;7.85;4.85;;;10.00;97.00;;;;;;4977319;28;20027;-89
2022/01/29 06:33:25;;;;;;;8.90;4.45;;;10.00;97.00;;;;;;4960233;28;20035;-88
2022/01/29 06:35:52;;;;;;;7.72;4.40;;;10.10;97.00;;;;;;4963879;28;20117;-88
2022/01/29 06:38:17;;;;;;;7.33;4.03;;;10.10;97.10;;;;;;4969928;28;20049;-88
2022/01/29 06:40:43;;;;;;;6.85;3.67;;;10.10;97.10;;;;;;4957517;28;20034;-88
2022/01/29 06:43:10;;;;;;;7.20;4.30;;;10.20;97.10;;;;;;4973739;28;20027;-88
2022/01/29 06:45:37;;;;;;;6.18;3.72;;;10.20;97.00;;;;;;4940767;28;20023;-88
2022/01/29 06:48:04;;;;;;;7.15;3.90;;;10.20;97.10;;;;;;4959682;28;20145;-87
2022/01/29 06:50:30;;;;;;;8.35;4.25;;;10.20;97.10;;;;;;4973416;28;20054;-88
2022/01/29 06:52:55;;;;;;;7.22;4.00;;;10.30;97.10;;;;;;4956541;28;20110;-88
2022/01/29 06:55:22;;;;;;;6.37;3.70;;;10.30;97.10;;;;;;4971702;28;20431;-88
2022/01/29 06:57:48;;;;;;;8.43;4.80;;;10.30;97.10;;;;;;4960048;28;20371;-87
2022/01/29 07:00:14;;;;;;;6.80;4.00;;;10.30;97.00;;;;;;4947596;28;20444;-88
2022/01/29 07:02:40;;;;;;;7.15;4.35;;;10.30;97.10;;;;;;4974441;28;20039;-87
2022/01/29 07:05:09;;;;;;;6.73;4.10;;;10.30;97.10;;;;;;4964028;28;20536;-88
2022/01/29 07:07:35;;;;;;;7.40;4.10;;;10.40;97.10;;;;;;4982410;28;20038;-87
2022/01/29 07:10:01;;;;;;;6.37;3.83;;;10.40;97.10;;;;;;4946225;28;20023;-87
2022/01/29 07:12:27;;;;;;;6.35;3.75;;;10.40;97.10;;;;;;4950805;28;20165;-88
2022/01/29 07:14:52;;;;;;;6.13;3.70;;;10.40;97.10;;;;;;4983148;28;20527;-88
2022/01/29 07:17:22;;;;;;;7.50;4.20;;;10.50;97.20;;;;;;4946019;28;20042;-88
2022/01/29 07:19:52;;;;;;;8.45;4.78;;;10.50;97.10;;;;;;4956720;28;20082;-88
2022/01/29 07:22:18;;;;;;;10.50;4.85;;;10.50;97.00;;;;;;4965140;28;20034;-88
2022/01/29 07:24:46;;;;;;;6.75;3.60;;;10.50;97.00;;;;;;4952175;28;20661;-88
2022/01/29 07:27:12;;;;;;;7.80;4.38;;;10.60;97.10;;;;;;4947645;28;20158;-88
2022/01/29 07:29:38;;;;;;;7.27;4.23;;;10.60;97.10;;;;;;4977405;28;20334;-88
2022/01/29 07:32:04;;;;;;;6.85;3.90;;;10.60;97.10;;;;;;4943335;28;20034;-88
2022/01/29 07:34:30;;;;;;;7.00;3.70;;;10.60;97.10;;;;;;4955871;28;20280;-87
2022/01/29 07:36:56;;;;;;;6.10;3.60;;;10.70;97.10;;;;;;4961958;28;20037;-88
2022/01/29 07:39:23;;;;;;;8.38;4.40;;;10.70;97.00;;;;;;4952608;28;20121;-88
2022/01/29 07:41:49;;;;;;;7.22;4.18;;;10.80;97.10;;;;;;4955938;28;20535;-88
2022/01/29 07:44:17;;;;;;;6.40;3.58;;;10.70;97.10;;;;;;4948196;28;20101;-88
2022/01/29 07:46:43;;;;;;;7.13;4.07;;;10.80;97.10;;;;;;4945405;28;20179;-88
2022/01/29 07:49:09;;;;;;;6.37;3.50;;;10.80;97.40;;;;;;4945989;28;20611;-88
2022/01/29 07:51:35;;;;;;;6.13;3.35;;;10.80;97.10;;;;;;4955456;28;20231;-89
2022/01/29 07:54:02;;;;;;;5.53;3.40;;;10.90;97.10;;;;;;4963256;28;20040;-87
2022/01/29 07:56:27;;;;;;;7.63;4.03;;;10.80;97.10;;;;;;4956665;28;20105;-87
2022/01/29 07:58:53;;;;;;;7.25;3.88;;;10.90;97.10;;;;;;4952574;28;20428;-88
2022/01/29 08:01:19;;;;;;;7.93;4.43;;;10.90;97.10;;;;;;4940964;28;20042;-88
2022/01/29 08:03:46;;;;;;;7.53;3.80;;;10.90;97.10;;;;;;4952143;28;20232;-87
2022/01/29 08:06:13;;;;;;;8.77;4.30;;;10.90;97.10;;;;;;4972826;28;20525;-87
2022/01/29 08:08:39;;;;;;;6.57;3.50;;;11.00;97.10;;;;;;4956398;28;20038;-88
2022/01/29 08:11:04;;;;;;;6.60;4.20;;;11.00;97.10;;;;;;4959591;28;20023;-87
2022/01/29 08:13:30;;;;;;;5.82;3.78;;;11.00;97.10;;;;;;4931600;28;20212;-87
2022/01/29 08:15:56;;;;;;;6.40;4.00;;;11.00;97.10;;;;;;4965270;28;20041;-88
2022/01/29 08:18:21;;;;;;;7.03;3.97;;;11.00;97.00;;;;;;4967857;28;20047;-87
2022/01/29 08:20:47;;;;;;;7.33;3.60;;;11.10;97.10;;;;;;4963606;28;20101;-87
2022/01/29 08:23:13;;;;;;;6.13;3.78;;;11.10;97.10;;;;;;4970954;28;20042;-87
2022/01/29 08:25:38;;;;;;;6.80;3.80;;;11.10;97.10;;;;;;4977624;28;20085;-88
2022/01/29 08:28:05;;;;;;;6.90;3.92;;;11.10;97.10;;;;;;4950810;28;20472;-87
2022/01/29 08:30:31;;;;;;;6.47;3.87;;;11.10;97.10;;;;;;4952290;28;20027;-87
2022/01/29 08:32:57;;;;;;;7.88;4.18;;;11.10;97.10;;;;;;4951135;28;20287;-88
2022/01/29 08:35:23;;;;;;;6.97;4.07;;;11.20;97.00;;;;;;4961283;28;20081;-88
2022/01/29 08:37:48;;;;;;;8.67;4.67;;;11.20;97.00;;;;;;4964629;28;20035;-88
2022/01/29 08:40:14;;;;;;;7.22;3.72;;;11.20;96.90;;;;;;4964111;28;20038;-88
2022/01/29 08:42:40;;;;;;;8.80;4.38;;;11.20;96.90;;;;;;4972000;28;21083;-88
2022/01/29 08:45:09;;;;;;;5.93;3.60;;;11.20;96.70;;;;;;4944899;28;20049;-88
2022/01/29 08:47:35;;;;;;;7.57;3.88;;;11.20;96.80;;;;;;4964872;28;20061;-88
2022/01/29 08:50:03;;;;;;;6.97;3.70;;;11.20;96.80;;;;;;4981992;28;20031;-88
2022/01/29 08:52:32;;;;;;;6.45;3.45;;;11.20;96.80;;;;;;5002111;28;20026;-88
2022/01/29 08:54:58;;;;;;;6.65;3.88;;;11.20;96.90;;;;;;4961171;28;20188;-88
2022/01/29 08:57:23;;;;;;;6.33;3.37;;;11.10;96.80;;;;;;4964760;28;20110;-88
2022/01/29 08:59:49;;;;;;;7.00;3.90;;;11.10;96.80;;;;;;4939943;28;20084;-88
2022/01/29 09:02:15;;;;;;;6.10;3.47;;;11.10;96.80;;;;;;4980502;28;20336;-87
2022/01/29 09:04:41;;;;;;;6.55;3.72;;;11.10;96.90;;;;;;4947768;28;20077;-88
2022/01/29 09:07:09;;;;;;;5.22;3.10;;;11.10;97.20;;;;;;4962121;28;20035;-88
2022/01/29 09:09:34;;;;;;;5.53;3.03;;;11.10;96.90;;;;;;4993042;28;20030;-88
2022/01/29 09:12:01;;;;;;;5.17;3.00;;;11.10;96.90;;;;;;4995134;28;20027;-88
2022/01/29 09:14:27;;;;;;;5.93;3.38;;;11.10;97.00;;;;;;4964059;28;20031;-88
2022/01/29 09:16:53;;;;;;;4.60;2.90;;;11.10;97.00;;;;;;4948710;28;20295;-88
2022/01/29 09:19:19;;;;;;;4.80;2.80;;;11.10;97.10;;;;;;4951733;28;20130;-88
2022/01/29 09:21:45;;;;;;;4.03;2.58;;;11.10;97.10;;;;;;4959250;28;20046;-88
2022/01/29 09:24:11;;;;;;;4.07;2.23;;;11.10;97.10;;;;;;4981783;28;20500;-88
2022/01/29 09:26:36;;;;;;;5.15;2.60;;;11.20;97.20;;;;;;4959338;28;20118;-88
2022/01/29 09:29:03;;;;;;;5.00;2.80;;;11.10;97.10;;;;;;4962351;28;20035;-88
2022/01/29 09:31:30;;;;;;;4.43;2.63;;;11.20;97.20;;;;;;4964724;28;20404;-88
2022/01/29 09:33:57;;;;;;;4.28;2.47;;;11.20;97.20;;;;;;4978469;28;20468;-87
2022/01/29 09:36:23;;;;;;;4.32;2.40;;;11.20;97.20;;;;;;4948542;28;20077;-88
2022/01/29 09:38:49;;;;;;;4.70;2.60;;;11.20;97.20;;;;;;4958340;28;20057;-88
2022/01/29 09:41:18;;;;;;;4.53;2.35;;;11.20;97.20;;;;;;4997375;28;20106;-88
2022/01/29 09:43:46;;;;;;;5.13;2.58;;;11.20;97.30;;;;;;4975325;28;20496;-87
2022/01/29 09:46:14;;;;;;;4.45;2.50;;;11.30;97.40;;;;;;4952145;28;20026;-88
2022/01/29 09:48:41;;;;;;;4.70;2.47;;;11.30;97.40;;;;;;4980891;28;20241;-88
2022/01/29 09:51:09;;;;;;;4.47;2.60;;;11.30;97.40;;;;;;4976560;28;20828;-88
2022/01/29 09:53:35;;;;;;;4.30;2.40;;;11.30;97.40;;;;;;4969830;28;20123;-88
2022/01/29 09:56:03;;;;;;;4.23;2.47;;;11.30;97.50;;;;;;4979934;28;20491;-88
2022/01/29 09:58:28;;;;;;;4.10;2.40;;;11.40;97.50;;;;;;4971731;28;20511;-87
2022/01/29 10:00:54;;;;;;;4.50;2.63;;;11.40;97.50;;;;;;4964111;28;20026;-88
2022/01/29 10:03:20;;;;;;;3.40;2.03;;;11.50;97.50;;;;;;4949293;28;20288;-88
2022/01/29 10:05:51;;;;;;;3.70;2.30;;;11.50;97.50;;;;;;4944524;28;20031;-87
2022/01/29 10:08:18;;;;;;;3.65;2.00;;;11.60;97.50;;;;;;4973494;28;20398;-88
2022/01/29 10:11:10;;;;;;;3.53;2.20;;;11.60;97.50;;;;;;4961622;28;20038;-88
2022/01/29 10:13:37;;;;;;;4.20;2.03;;;11.60;97.50;;;;;;4990847;28;21055;-87
2022/01/29 10:16:14;;;;;;;3.78;2.45;;;11.70;97.50;;;;;;4988863;28;20034;-87
2022/01/29 10:18:42;;;;;;;3.72;2.40;;;11.70;97.50;;;;;;4964876;28;20522;-88
2022/01/29 10:21:20;;;;;;;3.80;2.00;;;11.70;97.50;;;;;;4991612;28;20053;-87
2022/01/29 10:23:47;;;;;;;3.77;1.93;;;11.80;97.60;;;;;;4940137;28;20127;-87
2022/01/29 10:26:30;;;;;;;4.40;2.10;;;11.90;97.50;;;;;;4960817;28;20034;-86
2022/01/29 10:28:57;;;;;;;2.92;1.90;;;11.90;97.10;;;;;;4984427;28;20122;-87
2022/01/29 10:31:23;;;;;;;2.90;1.85;;;12.00;97.50;;;;;;4963257;28;20469;-87
2022/01/29 10:33:49;;;;;;;3.63;1.85;;;12.00;97.60;;;;;;4956947;28;20038;-87
2022/01/29 10:36:17;;;;;;;2.53;1.50;;;12.10;97.60;;;;;;4966531;28;20419;-88
2022/01/29 10:38:49;;;;;;;3.40;1.80;;;12.10;97.50;;;;;;4924202;28;20263;-87
2022/01/29 10:41:22;;;;;;;3.13;1.60;;;12.20;97.60;;;;;;4982540;28;20038;-87
2022/01/29 10:44:00;;;;;;;2.78;1.52;;;12.20;97.40;;;;;;4969447;28;20439;-87
2022/01/29 10:46:28;;;;;;;2.37;1.40;;;12.30;97.40;;;;;;4976648;28;20126;-87
2022/01/29 10:48:54;;;;;;;2.05;1.52;;;12.40;97.80;;;;;;4960563;28;20086;-87
2022/01/29 10:51:20;;;;;;;2.17;1.40;;;12.50;97.80;;;;;;4984935;28;20073;-87
2022/01/29 10:53:46;;;;;;;2.10;1.50;;;12.50;97.70;;;;;;4938796;28;20117;-87
2022/01/29 10:56:12;;;;;;;2.67;1.60;;;12.60;97.60;;;;;;4945561;28;20473;-87
2022/01/29 10:58:41;;;;;;;1.63;1.17;;;12.70;97.30;;;;;;4980327;28;20180;-87
2022/01/29 11:01:13;;;;;;;2.20;1.30;;;12.80;97.30;;;;;;4960002;28;20285;-87
2022/01/29 11:03:39;;;;;;;2.50;1.60;;;12.80;97.10;;;;;;4954938;28;20684;-87
2022/01/29 11:06:06;;;;;;;2.65;1.60;;;12.90;96.90;;;;;;4951937;28;20070;-87
2022/01/29 11:08:32;;;;;;;2.55;1.30;;;12.90;96.50;;;;;;4971370;28;20035;-87
2022/01/29 11:10:58;;;;;;;3.00;1.45;;;12.90;96.70;;;;;;4958512;28;20033;-88
2022/01/29 11:13:25;;;;;;;3.27;1.60;;;13.00;96.80;;;;;;4944665;28;20407;-87
2022/01/29 11:15:52;;;;;;;2.85;1.25;;;13.00;96.60;;;;;;4987179;28;20157;-87
2022/01/29 11:18:18;;;;;;;2.40;1.60;;;13.00;96.50;;;;;;4977357;28;20101;-87
2022/01/29 11:20:44;;;;;;;2.13;1.25;;;13.10;96.30;;;;;;4944062;28;21021;-87
2022/01/29 11:23:11;;;;;;;1.63;1.30;;;13.00;96.50;;;;;;4989535;28;20039;-87
2022/01/29 11:25:37;;;;;;;2.53;1.13;;;13.10;96.30;;;;;;4941878;28;20467;-87
2022/01/29 11:28:16;;;;;;;2.30;1.30;;;13.00;96.40;;;;;;4973145;28;20038;-87
2022/01/29 11:30:46;;;;;;;2.10;1.27;;;13.10;96.10;;;;;;4963715;28;20031;-87
2022/01/29 11:33:12;;;;;;;1.65;1.17;;;13.10;96.10;;;;;;4956332;28;20031;-87
2022/01/29 11:35:52;;;;;;;1.60;1.00;;;13.00;96.20;;;;;;4972288;28;20037;-87
2022/01/29 11:38:28;;;;;;;1.13;1.00;;;13.00;95.50;;;;;;4969608;28;20297;-87
2022/01/29 11:41:00;;;;;;;1.50;1.08;;;13.00;95.80;;;;;;4945264;28;20027;-87
2022/01/29 11:43:30;;;;;;;2.20;1.20;;;13.00;95.90;;;;;;4956017;28;20038;-88
2022/01/29 11:46:12;;;;;;;2.05;1.30;;;13.00;95.90;;;;;;4973448;28;20045;-87
2022/01/29 11:48:56;;;;;;;1.50;1.00;;;13.00;95.90;;;;;;4951159;28;20030;-87
2022/01/29 11:51:49;;;;;;;1.90;1.30;;;13.00;96.10;;;;;;4970168;28;20023;-87
2022/01/29 11:54:21;;;;;;;2.47;1.50;;;13.10;95.60;;;;;;4968474;28;20257;-87
2022/01/29 11:56:47;;;;;;;2.55;1.35;;;13.00;95.60;;;;;;4987888;28;20046;-88
2022/01/29 11:59:27;;;;;;;3.35;1.30;;;13.00;96.00;;;;;;4991888;28;20267;-87
2022/01/29 12:02:17;;;;;;;2.83;1.20;;;13.00;95.70;;;;;;4980690;28;20050;-89
2022/01/29 12:04:54;;;;;;;1.95;1.40;;;13.10;96.10;;;;;;4953340;28;20109;-86
2022/01/29 12:07:28;;;;;;;2.38;1.35;;;13.10;95.60;;;;;;4972099;28;20367;-87
2022/01/29 12:10:08;;;;;;;1.77;1.20;;;13.10;95.90;;;;;;4982392;28;20409;-87
2022/01/29 12:12:35;;;;;;;2.53;1.35;;;13.10;95.80;;;;;;4978810;28;20133;-89
2022/01/29 12:15:10;;;;;;;2.73;1.20;;;13.10;95.90;;;;;;4975353;28;20039;-87
2022/01/29 12:17:59;;;;;;;1.83;1.17;;;13.10;95.70;;;;;;4977405;28;20178;-88
2022/01/29 12:20:26;;;;;;;2.65;1.20;;;13.10;95.40;;;;;;4949812;28;20424;-87
2022/01/29 12:23:01;;;;;;;2.85;1.20;;;13.10;96.00;;;;;;4971461;28;20039;-87
2022/01/29 12:25:28;;;;;;;1.45;1.17;;;13.20;95.90;;;;;;4946419;28;20051;-87
2022/01/29 12:27:55;;;;;;;2.23;1.37;;;13.20;96.00;;;;;;4942599;28;20207;-89
2022/01/29 12:30:27;;;;;;;3.90;1.58;;;13.20;96.20;;;;;;4959695;28;20027;-87
2022/01/29 12:33:04;;;;;;;2.22;1.30;;;13.20;96.10;;;;;;4993338;28;20598;-88
2022/01/29 12:35:50;;;;;;;2.67;1.35;;;13.30;95.50;;;;;;4968762;28;20031;-90
2022/01/29 12:38:20;;;;;;;2.38;1.30;;;13.30;95.30;;;;;;4955884;28;20082;-87
2022/01/29 12:41:02;;;;;;;3.77;1.37;;;13.30;96.00;;;;;;4960155;28;20030;-87
2022/01/29 12:43:31;;;;;;;2.35;1.50;;;13.40;95.70;;;;;;4985013;28;20031;-87
2022/01/29 12:46:18;;;;;;;3.55;1.70;;;13.40;96.20;;;;;;4990178;28;20069;-87
2022/01/29 12:49:00;;;;;;;3.83;1.70;;;13.40;95.10;;;;;;4968341;28;20023;-87
2022/01/29 12:51:26;;;;;;;3.33;1.70;;;13.50;95.20;;;;;;4972853;28;20383;-88
2022/01/29 12:53:56;;;;;;;2.83;1.40;;;13.50;95.90;;;;;;4978625;28;20036;-88
2022/01/29 12:56:33;;;;;;;2.70;1.52;;;13.50;95.90;;;;;;4933080;28;20412;-87
2022/01/29 12:59:00;;;;;;;3.67;1.55;;;13.50;95.80;;;;;;4964329;28;20093;-87
2022/01/29 13:01:26;;;;;;;2.78;1.40;;;13.60;96.20;;;;;;4960077;28;20031;-87